createdAt,value
2019-05-14T00:01:45.627Z,94992.34
2019-05-14T00:04:13.034Z,94987.72
2019-05-14T00:06:41.732Z,94957.69
2019-05-14T00:09:09.326Z,94955.28
2019-05-14T00:11:36.751Z,94970.80
2019-05-14T00:14:04.267Z,94978.75
2019-05-14T00:16:31.701Z,94964.14
2019-05-14T00:18:59.060Z,94963.03
2019-05-14T00:21:26.476Z,94974.76
2019-05-14T00:23:53.893Z,94970.06
2019-05-14T00:26:21.806Z,94972.91
2019-05-14T00:28:51.272Z,94958.11
2019-05-14T00:31:18.663Z,94947.30
2019-05-14T00:33:46.118Z,94946.25
2019-05-14T00:36:13.544Z,94936.25
2019-05-14T00:38:41.998Z,94939.53
2019-05-14T00:41:11.118Z,94933.16
2019-05-14T00:43:38.728Z,94941.61
2019-05-14T00:46:06.084Z,94947.34
2019-05-14T00:48:33.513Z,94942.17
2019-05-14T00:51:02.213Z,94943.04
2019-05-14T00:53:32.074Z,94946.69
2019-05-14T00:55:59.367Z,94939.00
2019-05-14T00:58:26.784Z,94948.05
2019-05-14T01:00:54.152Z,94938.23
2019-05-14T01:03:21.885Z,94931.34
2019-05-14T01:05:51.947Z,94947.58
2019-05-14T01:08:18.771Z,94939.09
2019-05-14T01:10:46.145Z,94940.22
2019-05-14T01:13:13.585Z,94951.98
2019-05-14T01:15:41.596Z,94944.89
2019-05-14T01:18:11.241Z,94945.16
2019-05-14T01:20:38.426Z,94944.75
2019-05-14T01:23:05.872Z,94949.91
2019-05-14T01:25:33.290Z,94939.76
2019-05-14T01:28:02.154Z,94947.50
2019-05-14T01:30:31.957Z,94961.69
2019-05-14T01:33:01.542Z,94939.95
2019-05-14T01:35:28.948Z,94932.36
2019-05-14T01:37:56.361Z,94941.44
2019-05-14T01:40:23.796Z,94944.17
2019-05-14T01:42:52.218Z,94944.41
2019-05-14T01:45:27.070Z,94944.95
2019-05-14T01:47:51.898Z,94944.99
2019-05-14T01:50:18.567Z,94929.45
2019-05-14T01:52:45.996Z,94939.00
2019-05-14T01:55:13.629Z,94941.48
2019-05-14T01:57:42.494Z,94931.02
2019-05-14T02:00:11.632Z,94942.17
2019-05-14T02:02:41.569Z,94947.61
2019-05-14T02:05:08.604Z,94938.53
2019-05-14T02:07:36.016Z,94937.34
2019-05-14T02:10:04.912Z,94928.45
2019-05-14T02:12:32.352Z,94926.73
2019-05-14T02:15:01.898Z,94937.44
2019-05-14T02:17:29.093Z,94936.91
2019-05-14T02:19:56.529Z,94936.17
2019-05-14T02:22:23.949Z,94928.52
2019-05-14T02:24:51.922Z,94925.94
2019-05-14T02:27:21.375Z,94911.30
2019-05-14T02:29:49.058Z,94910.11
2019-05-14T02:32:18.438Z,94917.66
2019-05-14T02:34:45.786Z,94923.09
2019-05-14T02:37:13.192Z,94931.29
2019-05-14T02:39:41.290Z,94913.97
2019-05-14T02:42:09.686Z,94915.00
2019-05-14T02:44:40.836Z,94922.39
2019-05-14T02:47:09.598Z,94924.50
2019-05-14T02:49:39.332Z,94931.42
2019-05-14T02:52:05.451Z,94920.81
2019-05-14T02:54:32.888Z,94936.31
2019-05-14T02:57:00.482Z,94941.14
2019-05-14T02:59:30.626Z,94930.94
2019-05-14T03:01:59.099Z,94937.73
2019-05-14T03:04:29.818Z,94945.31
2019-05-14T03:06:59.078Z,94952.91
2019-05-14T03:09:25.255Z,94964.11
2019-05-14T03:11:52.762Z,94969.41
2019-05-14T03:14:20.150Z,94977.43
2019-05-14T03:16:49.477Z,94984.42
2019-05-14T03:19:19.675Z,94980.64
2019-05-14T03:21:49.841Z,94981.59
2019-05-14T03:24:15.572Z,94988.37
2019-05-14T03:26:43.013Z,94985.94
2019-05-14T03:29:10.593Z,94988.20
2019-05-14T03:31:42.886Z,94986.23
2019-05-14T03:34:12.656Z,94982.00
2019-05-14T03:36:42.239Z,94991.48
2019-05-14T03:39:10.161Z,94985.84
2019-05-14T03:41:39.352Z,94993.03
2019-05-14T03:44:05.154Z,94998.97
2019-05-14T03:46:45.784Z,95007.97
2019-05-14T03:49:01.912Z,95009.45
2019-05-14T03:51:29.957Z,94993.20
2019-05-14T03:54:06.462Z,94983.47
2019-05-14T03:56:29.679Z,94986.91
2019-05-14T03:58:59.655Z,94979.40
2019-05-14T04:01:29.355Z,94960.30
2019-05-14T04:03:55.609Z,94947.06
2019-05-14T04:06:25.272Z,94952.03
2019-05-14T04:08:53.353Z,94955.20
2019-05-14T04:11:23.066Z,94949.45
2019-05-14T04:13:54.062Z,94954.17
2019-05-14T04:16:22.929Z,94944.42
2019-05-14T04:18:53.435Z,94951.84
2019-05-14T04:21:21.336Z,94962.05
2019-05-14T04:23:50.893Z,94949.25
2019-05-14T04:26:21.652Z,94958.61
2019-05-14T04:28:50.393Z,94953.80
2019-05-14T04:31:19.364Z,94936.17
2019-05-14T04:33:49.944Z,94937.39
2019-05-14T04:36:19.594Z,94948.52
2019-05-14T04:38:51.409Z,94949.41
2019-05-14T04:41:19.526Z,94935.25
2019-05-14T04:43:49.647Z,94924.53
2019-05-14T04:46:15.514Z,94927.52
2019-05-14T04:48:44.017Z,94933.72
2019-05-14T04:51:11.834Z,94938.23
2019-05-14T04:53:39.734Z,94942.88
2019-05-14T04:56:09.855Z,94941.63
2019-05-14T04:58:40.455Z,94925.20
2019-05-14T05:01:09.553Z,94928.60
2019-05-14T05:03:35.404Z,94940.47
2019-05-14T05:06:02.882Z,94945.89
2019-05-14T05:08:31.054Z,94935.62
2019-05-14T05:11:00.013Z,94931.22
2019-05-14T05:13:29.146Z,94942.97
2019-05-14T05:15:59.408Z,94938.13
2019-05-14T05:18:29.142Z,94939.91
2019-05-14T05:20:58.169Z,94932.70
2019-05-14T05:23:25.093Z,94929.06
2019-05-14T05:25:52.542Z,94931.31
2019-05-14T05:28:19.949Z,94932.23
2019-05-14T05:30:49.108Z,94943.84
2019-05-14T05:33:18.644Z,94934.03
2019-05-14T05:35:48.490Z,94938.53
2019-05-14T05:38:15.325Z,94948.49
2019-05-14T05:40:42.753Z,94953.78
2019-05-14T05:43:10.138Z,94947.75
2019-05-14T05:45:38.150Z,94942.63
2019-05-14T05:48:08.069Z,94945.64
2019-05-14T05:50:34.946Z,94953.62
2019-05-14T05:53:02.311Z,94954.47
2019-05-14T05:55:29.701Z,94951.30
2019-05-14T05:57:58.710Z,94944.54
2019-05-14T06:00:39.922Z,94937.39
2019-05-14T06:03:10.913Z,94929.02
2019-05-14T06:05:38.946Z,94931.38
2019-05-14T06:08:08.550Z,94933.99
2019-05-14T06:10:35.801Z,94922.77
2019-05-14T06:13:03.202Z,94909.53
2019-05-14T06:15:44.498Z,94900.86
2019-05-14T06:18:14.085Z,94905.64
2019-05-14T06:20:29.477Z,94913.16
2019-05-14T06:22:58.824Z,94921.17
2019-05-14T06:25:26.244Z,94915.44
2019-05-14T06:27:54.089Z,94921.06
2019-05-14T06:30:41.053Z,94914.73
2019-05-14T06:33:09.282Z,94912.48
2019-05-14T06:35:39.376Z,94909.17
2019-05-14T06:38:08.736Z,94900.88
2019-05-14T06:40:35.671Z,94914.66
2019-05-14T06:43:03.068Z,94907.41
2019-05-14T06:45:30.528Z,94897.49
2019-05-14T06:47:59.318Z,94891.29
2019-05-14T06:50:28.473Z,94875.72
2019-05-14T06:52:58.118Z,94876.73
2019-05-14T06:55:25.489Z,94865.17
2019-05-14T06:57:52.899Z,94872.59
2019-05-14T07:00:20.867Z,94865.22
2019-05-14T07:02:49.083Z,94883.40
2019-05-14T07:05:18.844Z,94880.08
2019-05-14T07:07:49.076Z,94873.75
2019-05-14T07:10:15.799Z,94880.70
2019-05-14T07:12:43.197Z,94869.05
2019-05-14T07:15:12.333Z,94872.17
2019-05-14T07:17:39.780Z,94871.77
2019-05-14T07:20:08.854Z,94857.40
2019-05-14T07:22:39.060Z,94864.19
2019-05-14T07:25:09.514Z,94857.50
2019-05-14T07:27:39.012Z,94856.27
2019-05-14T07:30:09.004Z,94850.44
2019-05-14T07:32:39.527Z,94855.50
2019-05-14T07:35:09.093Z,94851.84
2019-05-14T07:37:39.336Z,94858.66
2019-05-14T07:40:08.589Z,94856.89
2019-05-14T07:42:38.401Z,94855.40
2019-05-14T07:45:09.376Z,94865.92
2019-05-14T07:47:38.807Z,94865.19
2019-05-14T07:50:08.443Z,94860.64
2019-05-14T07:52:35.494Z,94871.05
2019-05-14T07:55:03.216Z,94870.51
2019-05-14T07:57:30.617Z,94869.15
2019-05-14T07:59:58.795Z,94853.36
2019-05-14T08:02:28.829Z,94863.99
2019-05-14T08:04:57.947Z,94876.38
2019-05-14T08:07:25.129Z,94877.08
2019-05-14T08:09:52.564Z,94883.61
2019-05-14T08:12:19.991Z,94876.67
2019-05-14T08:15:09.104Z,94880.76
2019-05-14T08:17:18.861Z,94884.48
2019-05-14T08:19:46.159Z,94879.93
2019-05-14T08:22:13.593Z,94875.17
2019-05-14T08:24:40.977Z,94870.48
2019-05-14T08:27:08.674Z,94882.27
2019-05-14T08:29:37.511Z,94872.84
2019-05-14T08:32:05.521Z,94863.66
2019-05-14T08:34:33.096Z,94851.59
2019-05-14T08:37:03.888Z,94864.41
2019-05-14T08:39:29.948Z,94859.40
2019-05-14T08:42:03.061Z,94855.52
2019-05-14T08:44:29.187Z,94846.40
2019-05-14T08:46:58.838Z,94851.95
2019-05-14T08:49:38.880Z,94848.05
2019-05-14T08:51:54.750Z,94845.05
2019-05-14T08:54:22.289Z,94837.62
2019-05-14T08:56:49.726Z,94835.48
2019-05-14T08:59:19.452Z,94839.77
2019-05-14T09:01:58.716Z,94837.21
2019-05-14T09:04:15.773Z,94843.22
2019-05-14T09:06:43.223Z,94832.27
2019-05-14T09:09:10.652Z,94835.72
2019-05-14T09:11:44.690Z,94839.13
2019-05-14T09:14:10.904Z,94829.98
2019-05-14T09:16:46.169Z,94819.90
2019-05-14T09:19:08.631Z,94815.55
2019-05-14T09:21:35.670Z,94821.81
2019-05-14T09:24:03.100Z,94798.97
2019-05-14T09:26:30.549Z,94800.92
2019-05-14T09:28:58.702Z,94790.92
2019-05-14T09:31:26.291Z,94789.52
2019-05-14T09:33:53.755Z,94788.14
2019-05-14T09:36:24.074Z,94789.65
2019-05-14T09:38:50.714Z,94796.95
2019-05-14T09:41:18.693Z,94787.27
2019-05-14T09:43:48.795Z,94781.05
2019-05-14T09:46:18.305Z,94786.79
2019-05-14T09:48:45.118Z,94792.93
2019-05-14T09:51:12.487Z,94781.69
2019-05-14T09:53:39.967Z,94779.36
2019-05-14T09:56:09.076Z,94772.99
2019-05-14T09:58:38.811Z,94773.91
2019-05-14T10:01:08.317Z,94779.75
2019-05-14T10:03:35.329Z,94775.31
2019-05-14T10:06:02.738Z,94775.53
2019-05-14T10:08:30.168Z,94776.34
2019-05-14T10:11:00.244Z,94769.94
2019-05-14T10:13:28.194Z,94778.19
2019-05-14T10:15:55.864Z,94780.51
2019-05-14T10:18:23.350Z,94779.95
2019-05-14T10:20:50.744Z,94772.01
2019-05-14T10:23:18.848Z,94776.56
2019-05-14T10:25:46.711Z,94782.02
2019-05-14T10:28:14.064Z,94778.13
2019-05-14T10:30:41.508Z,94782.36
2019-05-14T10:33:14.708Z,94776.62
2019-05-14T10:35:39.099Z,94768.01
2019-05-14T10:38:08.809Z,94767.08
2019-05-14T10:40:38.420Z,94763.36
2019-05-14T10:43:05.632Z,94773.36
2019-05-14T10:45:33.077Z,94761.34
2019-05-14T10:48:00.507Z,94765.50
2019-05-14T10:50:28.987Z,94768.78
2019-05-14T10:52:59.179Z,94769.31
2019-05-14T10:55:27.786Z,94765.80
2019-05-14T10:57:55.133Z,94765.91
2019-05-14T11:00:23.143Z,94764.80
2019-05-14T11:02:50.585Z,94756.64
2019-05-14T11:05:18.825Z,94747.60
2019-05-14T11:07:48.160Z,94759.80
2019-05-14T11:10:19.149Z,94752.91
2019-05-14T11:12:45.310Z,94758.61
2019-05-14T11:15:14.064Z,94754.38
2019-05-14T11:17:41.512Z,94764.66
2019-05-14T11:20:09.086Z,94749.87
2019-05-14T11:22:38.744Z,94748.04
2019-05-14T11:25:09.265Z,94754.67
2019-05-14T11:27:38.634Z,94752.34
2019-05-14T11:30:08.797Z,94746.88
2019-05-14T11:32:38.325Z,94747.94
2019-05-14T11:35:11.731Z,94745.19
2019-05-14T11:37:35.081Z,94739.34
2019-05-14T11:40:02.988Z,94753.41
2019-05-14T11:42:31.379Z,94746.15
2019-05-14T11:44:59.237Z,94739.61
2019-05-14T11:47:26.658Z,94747.88
2019-05-14T11:49:54.032Z,94746.76
2019-05-14T11:52:21.474Z,94734.85
2019-05-14T11:54:49.525Z,94744.57
2019-05-14T11:57:19.151Z,94755.73
2019-05-14T11:59:46.340Z,94739.72
2019-05-14T12:02:13.757Z,94744.20
2019-05-14T12:04:41.131Z,94744.96
2019-05-14T12:07:09.571Z,94745.20
2019-05-14T12:09:39.093Z,94739.73
2019-05-14T12:12:11.556Z,94733.52
2019-05-14T12:14:37.976Z,94734.87
2019-05-14T12:17:05.362Z,94727.30
2019-05-14T12:19:32.778Z,94717.73
2019-05-14T12:22:07.665Z,94718.98
2019-05-14T12:24:29.603Z,94708.72
2019-05-14T12:26:58.576Z,94691.05
2019-05-14T12:29:29.212Z,94694.31
2019-05-14T12:31:58.479Z,94690.38
2019-05-14T12:34:25.494Z,94687.27
2019-05-14T12:36:52.858Z,94688.86
2019-05-14T12:39:20.321Z,94681.23
2019-05-14T12:41:49.026Z,94685.70
2019-05-14T12:44:19.352Z,94686.81
2019-05-14T12:46:48.757Z,94689.76
2019-05-14T12:49:15.454Z,94688.20
2019-05-14T12:51:43.028Z,94683.81
2019-05-14T12:54:10.439Z,94669.67
2019-05-14T12:56:39.075Z,94664.81
2019-05-14T12:59:06.714Z,94657.10
2019-05-14T13:01:34.068Z,94656.36
2019-05-14T13:04:01.518Z,94652.37
2019-05-14T13:06:29.465Z,94646.79
2019-05-14T13:08:58.587Z,94652.63
2019-05-14T13:11:26.234Z,94660.98
2019-05-14T13:13:53.660Z,94651.05
2019-05-14T13:16:21.029Z,94645.31
2019-05-14T13:18:49.896Z,94647.44
2019-05-14T13:21:19.149Z,94644.48
2019-05-14T13:23:48.738Z,94647.16
2019-05-14T13:26:18.760Z,94639.66
2019-05-14T13:28:50.289Z,94651.37
2019-05-14T13:31:14.994Z,94654.88
2019-05-14T13:33:42.389Z,94663.81
2019-05-14T13:36:09.845Z,94652.63
2019-05-14T13:38:39.678Z,94655.09
2019-05-14T13:41:08.713Z,94655.61
2019-05-14T13:43:38.756Z,94643.22
2019-05-14T13:46:05.673Z,94643.22
2019-05-14T13:48:33.174Z,94635.74
2019-05-14T13:51:00.748Z,94633.25
2019-05-14T13:53:29.521Z,94634.77
2019-05-14T13:55:58.007Z,94626.31
2019-05-14T13:58:28.402Z,94629.27
2019-05-14T14:00:54.886Z,94626.46
2019-05-14T14:03:22.313Z,94621.73
2019-05-14T14:05:50.049Z,94611.77
2019-05-14T14:08:19.355Z,94626.16
2019-05-14T14:10:52.950Z,94630.79
2019-05-14T14:13:16.236Z,94612.27
2019-05-14T14:15:43.671Z,94611.11
2019-05-14T14:18:11.135Z,94604.80
2019-05-14T14:20:39.446Z,94599.86
2019-05-14T14:23:18.882Z,94598.01
2019-05-14T14:25:39.287Z,94592.22
2019-05-14T14:28:05.824Z,94588.09
2019-05-14T14:30:33.289Z,94602.41
2019-05-14T14:33:01.317Z,94604.50
2019-05-14T14:35:30.408Z,94611.11
2019-05-14T14:37:59.182Z,94605.30
2019-05-14T14:40:26.782Z,94602.02
2019-05-14T14:42:54.218Z,94588.67
2019-05-14T14:45:22.056Z,94592.84
2019-05-14T14:47:49.951Z,94583.45
2019-05-14T14:50:19.423Z,94570.02
2019-05-14T14:52:49.589Z,94571.12
2019-05-14T14:55:19.170Z,94575.42
2019-05-14T14:57:46.313Z,94575.54
2019-05-14T15:00:15.816Z,94583.51
2019-05-14T15:02:43.219Z,94575.75
2019-05-14T15:05:14.101Z,94574.54
2019-05-14T15:07:41.041Z,94578.05
2019-05-14T15:10:09.485Z,94582.59
2019-05-14T15:12:39.971Z,94563.25
2019-05-14T15:15:06.419Z,94564.34
2019-05-14T15:17:33.931Z,94562.61
2019-05-14T15:20:01.462Z,94552.98
2019-05-14T15:22:30.938Z,94549.64
2019-05-14T15:24:58.696Z,94550.52
2019-05-14T15:27:28.297Z,94546.21
2019-05-14T15:29:55.570Z,94554.16
2019-05-14T15:32:23.062Z,94555.28
2019-05-14T15:34:50.777Z,94532.20
2019-05-14T15:37:19.015Z,94539.41
2019-05-14T15:39:48.884Z,94538.20
2019-05-14T15:42:19.048Z,94539.92
2019-05-14T15:44:52.207Z,94551.48
2019-05-14T15:47:14.749Z,94546.64
2019-05-14T15:49:42.303Z,94543.64
2019-05-14T15:52:09.750Z,94542.36
2019-05-14T15:54:46.306Z,94536.67
2019-05-14T15:57:09.005Z,94526.05
2019-05-14T15:59:35.922Z,94542.89
2019-05-14T16:02:03.455Z,94538.91
2019-05-14T16:04:30.892Z,94531.51
2019-05-14T16:06:58.704Z,94531.71
2019-05-14T16:09:28.835Z,94531.50
2019-05-14T16:11:55.694Z,94543.87
2019-05-14T16:14:23.109Z,94523.81
2019-05-14T16:16:50.559Z,94522.77
2019-05-14T16:19:19.029Z,94526.25
2019-05-14T16:21:46.727Z,94521.05
2019-05-14T16:24:14.222Z,94526.37
2019-05-14T16:26:41.635Z,94511.36
2019-05-14T16:29:09.136Z,94538.91
2019-05-14T16:31:42.882Z,94535.42
2019-05-14T16:34:09.262Z,94530.84
2019-05-14T16:36:40.917Z,94541.88
2019-05-14T16:39:05.960Z,94553.02
2019-05-14T16:41:33.386Z,94543.98
2019-05-14T16:44:00.927Z,94546.06
2019-05-14T16:46:28.869Z,94554.29
2019-05-14T16:48:58.241Z,94537.16
2019-05-14T16:51:26.829Z,94527.59
2019-05-14T16:53:54.188Z,94532.28
2019-05-14T16:56:21.607Z,94545.58
2019-05-14T16:58:49.065Z,94538.74
2019-05-14T17:01:19.017Z,94548.44
2019-05-14T17:03:48.945Z,94554.62
2019-05-14T17:06:15.168Z,94550.42
2019-05-14T17:08:42.568Z,94544.07
2019-05-14T17:11:10.019Z,94538.01
2019-05-14T17:13:38.165Z,94536.87
2019-05-14T17:16:08.320Z,94543.59
2019-05-14T17:18:35.166Z,94544.84
2019-05-14T17:21:02.605Z,94547.67
2019-05-14T17:23:30.043Z,94548.75
2019-05-14T17:25:58.012Z,94551.23
2019-05-14T17:28:25.542Z,94547.29
2019-05-14T17:30:53.025Z,94550.92
2019-05-14T17:33:21.194Z,94556.45
2019-05-14T17:35:48.648Z,94556.56
2019-05-14T17:38:18.324Z,94555.45
2019-05-14T17:40:45.532Z,94524.00
2019-05-14T17:43:12.948Z,94548.42
2019-05-14T17:45:40.313Z,94560.02
2019-05-14T17:48:07.769Z,94562.14
2019-05-14T17:50:35.317Z,94552.93
2019-05-14T17:53:02.942Z,94551.13
2019-05-14T17:55:43.680Z,94557.69
2019-05-14T17:58:00.362Z,94555.52
2019-05-14T18:00:28.760Z,94553.33
2019-05-14T18:02:56.301Z,94552.94
2019-05-14T18:05:23.741Z,94550.92
2019-05-14T18:07:51.114Z,94559.07
2019-05-14T18:10:19.513Z,94556.56
2019-05-14T18:12:48.290Z,94560.45
2019-05-14T18:15:16.073Z,94561.41
2019-05-14T18:17:43.451Z,94558.19
2019-05-14T18:20:11.605Z,94556.56
2019-05-14T18:22:42.175Z,94568.48
2019-05-14T18:25:08.509Z,94559.95
2019-05-14T18:27:38.768Z,94553.01
2019-05-14T18:30:08.909Z,94552.53
2019-05-14T18:32:35.814Z,94558.60
2019-05-14T18:35:04.861Z,94555.83
2019-05-14T18:37:32.293Z,94554.19
2019-05-14T18:39:59.689Z,94547.23
2019-05-14T18:42:29.561Z,94559.55
2019-05-14T18:44:58.881Z,94559.07
2019-05-14T18:47:25.785Z,94559.13
2019-05-14T18:49:53.225Z,94557.38
2019-05-14T18:52:20.693Z,94565.85
2019-05-14T18:54:48.515Z,94560.16
2019-05-14T18:57:18.104Z,94561.41
2019-05-14T18:59:45.421Z,94558.56
2019-05-14T19:02:12.841Z,94569.97
2019-05-14T19:04:40.322Z,94570.11
2019-05-14T19:07:07.707Z,94582.26
2019-05-14T19:09:35.128Z,94572.73
2019-05-14T19:12:02.589Z,94574.95
2019-05-14T19:14:30.057Z,94565.61
2019-05-14T19:16:58.510Z,94564.59
2019-05-14T19:19:26.188Z,94560.19
2019-05-14T19:21:53.614Z,94561.77
2019-05-14T19:24:21.076Z,94564.61
2019-05-14T19:26:49.734Z,94544.03
2019-05-14T19:29:18.569Z,94548.91
2019-05-14T19:31:48.138Z,94539.85
2019-05-14T19:34:15.594Z,94535.87
2019-05-14T19:36:43.070Z,94535.56
2019-05-14T19:39:10.487Z,94528.63
2019-05-14T19:41:38.941Z,94551.13
2019-05-14T19:44:08.684Z,94549.61
2019-05-14T19:46:38.445Z,94549.04
2019-05-14T19:49:05.376Z,94544.80
2019-05-14T19:51:32.699Z,94530.05
2019-05-14T19:54:00.134Z,94519.29
2019-05-14T19:56:29.334Z,94506.89
2019-05-14T19:58:56.913Z,94526.10
2019-05-14T20:01:24.425Z,94519.78
2019-05-14T20:03:51.853Z,94518.30
2019-05-14T20:06:19.320Z,94524.58
2019-05-14T20:08:48.202Z,94525.12
2019-05-14T20:11:15.753Z,94534.24
2019-05-14T20:13:43.198Z,94537.69
2019-05-14T20:16:10.622Z,94549.45
2019-05-14T20:18:38.462Z,94537.51
2019-05-14T20:21:05.940Z,94532.24
2019-05-14T20:23:33.378Z,94535.39
2019-05-14T20:26:00.842Z,94550.67
2019-05-14T20:28:28.265Z,94569.80
2019-05-14T20:30:58.524Z,94581.74
2019-05-14T20:33:25.129Z,94582.34
2019-05-14T20:35:53.186Z,94584.52
2019-05-14T20:38:20.573Z,94610.61
2019-05-14T20:40:48.668Z,94607.73
2019-05-14T20:43:18.547Z,94602.34
2019-05-14T20:45:48.617Z,94605.26
2019-05-14T20:48:15.362Z,94611.44
2019-05-14T20:50:42.895Z,94610.45
2019-05-14T20:53:11.705Z,94608.93
2019-05-14T20:55:39.203Z,94616.67
2019-05-14T20:58:08.016Z,94626.55
2019-05-14T21:00:35.557Z,94630.33
2019-05-14T21:03:02.987Z,94627.95
2019-05-14T21:05:30.431Z,94635.30
2019-05-14T21:07:58.985Z,94634.17
2019-05-14T21:10:29.101Z,94645.80
2019-05-14T21:12:58.046Z,94652.99
2019-05-14T21:15:25.338Z,94646.09
2019-05-14T21:17:52.886Z,94653.16
2019-05-14T21:20:20.325Z,94649.14
2019-05-14T21:22:48.460Z,94639.09
2019-05-14T21:25:18.443Z,94663.81
2019-05-14T21:27:51.299Z,94662.46
2019-05-14T21:30:15.207Z,94650.45
2019-05-14T21:32:42.897Z,94657.23
2019-05-14T21:35:10.697Z,94661.16
2019-05-14T21:37:39.462Z,94661.39
2019-05-14T21:40:09.150Z,94657.45
2019-05-14T21:42:38.399Z,94652.98
2019-05-14T21:45:09.508Z,94652.26
2019-05-14T21:47:38.456Z,94635.95
2019-05-14T21:50:05.658Z,94641.09
2019-05-14T21:52:33.115Z,94642.49
2019-05-14T21:55:00.514Z,94646.10
2019-05-14T21:57:28.413Z,94644.16
2019-05-14T21:59:55.994Z,94650.59
2019-05-14T22:02:27.495Z,94658.08
2019-05-14T22:04:52.756Z,94683.59
2019-05-14T22:07:20.276Z,94685.78
2019-05-14T22:09:48.780Z,94686.11
2019-05-14T22:12:20.344Z,94694.91
2019-05-14T22:14:48.058Z,94693.02
2019-05-14T22:17:15.144Z,94680.70
2019-05-14T22:19:42.588Z,94674.86
2019-05-14T22:22:10.118Z,94682.73
2019-05-14T22:24:38.355Z,94683.17
2019-05-14T22:27:05.922Z,94682.93
2019-05-14T22:29:33.314Z,94685.07
2019-05-14T22:32:00.753Z,94675.02
2019-05-14T22:34:28.640Z,94667.23
2019-05-14T22:36:58.153Z,94667.28
2019-05-14T22:39:25.492Z,94695.22
2019-05-14T22:41:52.938Z,94678.58
2019-05-14T22:44:20.320Z,94674.84
2019-05-14T22:46:49.105Z,94692.55
2019-05-14T22:49:18.635Z,94697.81
2019-05-14T22:51:46.030Z,94711.04
2019-05-14T22:54:13.384Z,94703.34
2019-05-14T22:56:40.815Z,94703.20
2019-05-14T22:59:08.253Z,94704.40
2019-05-14T23:01:35.662Z,94708.90
2019-05-14T23:04:03.050Z,94702.91
2019-05-14T23:06:30.464Z,94690.75
2019-05-14T23:08:58.234Z,94700.19
2019-05-14T23:11:25.866Z,94705.78
2019-05-14T23:13:53.280Z,94714.33
2019-05-14T23:16:33.413Z,94715.50
2019-05-14T23:18:50.082Z,94711.45
2019-05-14T23:21:17.541Z,94728.42
2019-05-14T23:23:45.070Z,94710.69
2019-05-14T23:26:12.511Z,94708.73
2019-05-14T23:28:45.502Z,94702.84
2019-05-14T23:31:09.197Z,94697.59
2019-05-14T23:33:38.837Z,94701.64
2019-05-14T23:36:05.954Z,94702.52
2019-05-14T23:38:33.655Z,94712.58
2019-05-14T23:41:01.091Z,94719.19
2019-05-14T23:43:28.865Z,94717.44
2019-05-14T23:45:58.347Z,94721.63
2019-05-14T23:48:25.863Z,94712.15
2019-05-14T23:50:53.268Z,94709.02
2019-05-14T23:53:20.705Z,94718.34
2019-05-14T23:55:48.332Z,94721.05
2019-05-14T23:58:15.940Z,94715.33
